SACO/COR METAR and TAF weather

Enter ICAO airport designator
Station Type Date Time Source
SACO METAR 2022/12/04 12:00 UTC NOAA

SACO 041200Z 05008KT 010V080 CAVOK 29/08 Q1012 NOSIG RMK PP000


Station Type Date Time Source
SACO Decoded METAR 2022/12/04 12:00 UTC NOAA

Cordoba Aerodrome, Argentina (SACO) 31-19S 064-13W 474M
Dec 04, 2022 - 07:00 AM EST / 2022.12.04 1200 UTC
Wind: from the NE (050 degrees) at 9 MPH (8 KT) (direction variable):0
Visibility: greater than 7 mile(s):0
Temperature: 84 F (29 C)
Dew Point: 46 F (8 C)
Relative Humidity: 26%
Pressure (altimeter): 29.88 in. Hg (1012 hPa)
ob: SACO 041200Z 05008KT 010V080 CAVOK 29/08 Q1012 NOSIG RMK PP000
cycle: 12

Station Type Date Time Source
SACO TAF 2022/12/04 12:27 UTC NOAA

TAF TAF SACO 041100Z 0412/0512 34005KT CAVOK TX35/0419Z TN15/0511Z
BECMG 0418/0421 18008KT 0500/0506 36010KT
BECMG 0510/0512 36015KT

Example: see airport list